16ME weather

Presque Isle Heliport
Presque Isle, Maine, United States

Public forecast

Using degrees Fahrenheit for public forecast. Weather courtesy of forecast.io.

METAR (pilot weather report)

Closest report is Northern Maine Regional Airport at Presque Isle, 2.0 nm (3.8 km) WNW. Retrieved 2019/07/20 13:56 UTC (55 minutes ago):

KPQI 201356Z AUTO 26009KT 10SM CLR 27/19 A2970 RMK AO2 SLP076 T02670189

TAF (pilot weather forecast)

Closest forecast is Northern Maine Regional Airport at Presque Isle, 2.0 nm (3.8 km) WNW. Retrieved 2019/07/20 12:22 UTC (2 hours ago):

TAF KPQI 201120Z 2012/2112 25007KT P6SM SCT060 FM210000 27007KT P6SM VCSH SCT050